Arthur Foss — WRB5693 — position and weather

sailwx.info

Track history (hours):
 
Tides and Currents Weather Stations Pressure Air Temp Water Temp Dewpoint Dewpoint Depression Visibility Wind Speed Wind Dir Waves Ship Positions

Arthur Foss

Owner: FOSS MARITIME COMPANY, SEATTLE, WA. More information available from US FCC via Universal Licensing System and Coast Guard Vessel Documentation Center.

Last reported at 2018-Jun-21 18:00 UTC. Time now 2018-Jun-21 18:06 UTC.
Position N 33°46' W 118°13'.

Length 30 m; draft 5.3 m.

Type: Tug. MMSI: 366979360.

Date/timePositionNaut miles runAvg speedWind from/ knotsBaromVisibWave heightAir tempDewpointWater temp
2018-Jun-21 18:00N 33°46' W 118°13'0 0.0
2018-Jun-21 17:30N 33°46' W 118°13'0 0.0
2018-Jun-21 17:00N 33°46' W 118°13'1 1.2
2018-Jun-21 16:30N 33°46' W 118°13'0 0.0
2018-Jun-21 16:00N 33°46' W 118°13'0 0.0
2018-Jun-21 15:30N 33°46' W 118°13'0 0.0
2018-Jun-21 15:00N 33°46' W 118°13'0 0.0
2018-Jun-21 14:30N 33°46' W 118°13'0 0.0
2018-Jun-21 14:00N 33°46' W 118°13'1 1.3
2018-Jun-21 13:30N 33°46' W 118°13'1 1.7
2018-Jun-21 13:00N 33°45' W 118°14'0 0.0
2018-Jun-21 12:30N 33°45' W 118°14'1 1.3
2018-Jun-21 12:00N 33°45' W 118°13'0 0.0
2018-Jun-21 11:30N 33°45' W 118°13'0 0.0
2018-Jun-21 11:00N 33°45' W 118°13'0 0.0
2018-Jun-21 10:30N 33°45' W 118°13'2 3.7
2018-Jun-21 10:00N 33°43' W 118°14'4 8.3
2018-Jun-21 09:30N 33°42' W 118°18'10 0.3
2018-Jun-19 23:02N 33°51' W 118°24'0 0.0
2018-Jun-19 23:00N 33°51' W 118°24'0 0.0
2018-Jun-19 22:27N 33°51' W 118°24'5 0.7
2018-Jun-19 15:51N 33°54' W 118°27'0 0.1
2018-Jun-19 15:28N 33°54' W 118°27'  
2018-Jun-16 15:29N 33°43' W 118°22'5 9.4
2018-Jun-16 15:00N 33°42' W 118°16'4 8.4
2018-Jun-16 14:30N 33°45' W 118°12'0 0.1
2018-Jun-16 14:00N 33°45' W 118°12'2 3.1
2018-Jun-16 13:30N 33°44' W 118°11'0 1.0
2018-Jun-16 13:00N 33°44' W 118°12'2 4.0
2018-Jun-16 12:30N 33°45' W 118°13'0 0.0
2018-Jun-16 12:00N 33°45' W 118°13'0 0.0
2018-Jun-16 11:30N 33°45' W 118°13'1 2.2
2018-Jun-16 11:00N 33°46' W 118°13'0 0.0
2018-Jun-16 10:30N 33°46' W 118°13'0 0.0
2018-Jun-16 10:00N 33°46' W 118°13'0 0.0
2018-Jun-16 09:30N 33°46' W 118°13'0 0.0
2018-Jun-16 09:00N 33°46' W 118°13'0 0.0
2018-Jun-16 08:30N 33°46' W 118°13'0 0.0
2018-Jun-16 08:00N 33°46' W 118°13'0 0.0
2018-Jun-16 07:30N 33°46' W 118°13'0 0.0
2018-Jun-16 07:00N 33°46' W 118°13'0 0.0
2018-Jun-16 06:30N 33°46' W 118°13'0 0.0
2018-Jun-16 06:00N 33°46' W 118°13'0 0.0
2018-Jun-16 05:30N 33°46' W 118°13'0 0.0
2018-Jun-16 05:00N 33°46' W 118°13'0 0.0
2018-Jun-16 04:30N 33°46' W 118°13'1 1.7
2018-Jun-16 04:01N 33°46' W 118°14'1 2.4
2018-Jun-16 03:30N 33°45' W 118°13'2 5.0
2018-Jun-16 03:00N 33°44' W 118°11'2 4.6
2018-Jun-16 02:30N 33°45' W 118°13'1 2.9
2018-Jun-16 02:01N 33°46' W 118°13'0 0.0
2018-Jun-16 01:30N 33°46' W 118°13'0 0.0
2018-Jun-16 01:00N 33°46' W 118°13'0 0.0
2018-Jun-16 00:30N 33°46' W 118°13'1 1.6
2018-Jun-16 00:00N 33°45' W 118°13'1 1.9
2018-Jun-15 23:28N 33°46' W 118°13'0 0.6
2018-Jun-15 23:00N 33°46' W 118°13'0 0.0
2018-Jun-15 22:30N 33°46' W 118°13'0 0.0
2018-Jun-15 22:00N 33°46' W 118°13'0 0.0
2018-Jun-15 21:30N 33°46' W 118°13'0 0.0
2018-Jun-15 21:01N 33°46' W 118°13'0 0.0
2018-Jun-15 20:30N 33°46' W 118°13'0 0.0
2018-Jun-15 20:00N 33°46' W 118°13'0 0.0
2018-Jun-15 19:31N 33°46' W 118°13'0 0.0
2018-Jun-15 19:00N 33°46' W 118°13'0 0.0
2018-Jun-15 18:30N 33°46' W 118°13'0 0.0
2018-Jun-15 18:00N 33°46' W 118°13'0 0.0
2018-Jun-15 17:31N 33°46' W 118°13'0 0.0
2018-Jun-15 17:00N 33°46' W 118°13'0 0.0
2018-Jun-15 16:30N 33°46' W 118°13'0 0.0
2018-Jun-15 16:00N 33°46' W 118°13'0 0.0
2018-Jun-15 15:30N 33°46' W 118°13'0 0.6
2018-Jun-15 15:01N 33°46' W 118°13'3 6.0
2018-Jun-15 14:30N 33°45' W 118°16'0 0.9
2018-Jun-15 14:00N 33°44' W 118°17'2 4.1
2018-Jun-15 13:30N 33°43' W 118°15'1 1.7
2018-Jun-15 13:00N 33°43' W 118°16'0 0.0
2018-Jun-15 12:31N 33°43' W 118°16'1 1.5
2018-Jun-15 12:00N 33°43' W 118°15'1 1.9
2018-Jun-15 11:30N 33°43' W 118°14'1 2.0
2018-Jun-15 11:00N 33°44' W 118°13'1 2.2
2018-Jun-15 10:30N 33°45' W 118°13'1 2.2
2018-Jun-15 10:01N 33°46' W 118°13'1 1.3
2018-Jun-15 09:30N 33°46' W 118°13'0 0.0
2018-Jun-15 09:00N 33°46' W 118°13'0 0.0
2018-Jun-15 08:30N 33°46' W 118°13'0 0.0
2018-Jun-15 08:00N 33°46' W 118°13'0 0.0
2018-Jun-15 07:30N 33°46' W 118°13'0 0.0
2018-Jun-15 07:00N 33°46' W 118°13'0 0.0
2018-Jun-15 06:31N 33°46' W 118°13'0 0.0
2018-Jun-15 06:00N 33°46' W 118°13'0 0.0
2018-Jun-15 05:30N 33°46' W 118°13'0 0.0
2018-Jun-15 05:01N 33°46' W 118°13'0 0.0
2018-Jun-15 04:30N 33°46' W 118°13'0 0.0
2018-Jun-15 04:00N 33°46' W 118°13'0 0.0
2018-Jun-15 03:30N 33°46' W 118°13'0 0.0
2018-Jun-15 03:00N 33°46' W 118°13'0 0.0
2018-Jun-15 02:30N 33°46' W 118°13'1 2.6
2018-Jun-15 02:00N 33°45' W 118°13'3 6.1
2018-Jun-15 01:30N 33°44' W 118°16'1 2.1
2018-Jun-15 01:00N 33°45' W 118°16'1 1.1
2018-Jun-15 00:30N 33°45' W 118°16'0 0.0
2018-Jun-15 00:00N 33°45' W 118°16'0 0.0
2018-Jun-14 23:30N 33°45' W 118°16'0 0.9
2018-Jun-14 23:00N 33°46' W 118°17'0 0.4
2018-Jun-14 22:30N 33°45' W 118°17'1 2.6
2018-Jun-14 22:00N 33°44' W 118°17'2 4.2
2018-Jun-14 21:30N 33°43' W 118°14'3 6.7
2018-Jun-14 21:00N 33°46' W 118°13'0 0.4
2018-Jun-14 20:30N 33°46' W 118°13'0 0.0
2018-Jun-14 20:00N 33°46' W 118°13'0 0.0
2018-Jun-14 19:30N 33°46' W 118°13'0 0.0
2018-Jun-14 19:01N 33°46' W 118°13'0 0.4
2018-Jun-14 18:31N 33°46' W 118°13'0 1.0
2018-Jun-14 18:00N 33°46' W 118°13'3 6.4
2018-Jun-14 17:31N 33°43' W 118°15'3 5.1
2018-Jun-14 17:00N 33°45' W 118°16'1 1.2
2018-Jun-14 16:31N 33°46' W 118°16'0 0.0
2018-Jun-14 16:00N 33°46' W 118°16'0 0.0
2018-Jun-14 15:30N 33°46' W 118°16'0 0.0
2018-Jun-14 15:00N 33°46' W 118°16'0 0.0
2018-Jun-14 14:30N 33°46' W 118°16'0 0.0
2018-Jun-14 14:01N 33°46' W 118°16'0 0.0
2018-Jun-14 13:31N 33°46' W 118°16'0 0.0
2018-Jun-14 13:00N 33°46' W 118°16'0 0.0
2018-Jun-14 12:30N 33°46' W 118°16'0 0.0
2018-Jun-14 12:00N 33°46' W 118°16'0 0.2
2018-Jun-14 11:30N 33°46' W 118°16'3 5.1
2018-Jun-14 11:00N 33°43' W 118°16'1 2.7
2018-Jun-14 10:27N 33°43' W 118°14'3 7.7
2018-Jun-14 10:00N 33°46' W 118°13'0 0.1
2018-Jun-14 09:30N 33°46' W 118°13'0 0.0
2018-Jun-14 09:01N 33°46' W 118°13'0 0.0
2018-Jun-14 08:30N 33°46' W 118°13'0 0.0
2018-Jun-14 08:01N 33°46' W 118°13'0 0.0
2018-Jun-14 07:30N 33°46' W 118°13'0 0.0
2018-Jun-14 07:00N 33°46' W 118°13'0 0.0
2018-Jun-14 06:30N 33°46' W 118°13'0 0.0
2018-Jun-14 06:00N 33°46' W 118°13'0 0.0
2018-Jun-14 05:30N 33°46' W 118°13'0 0.0
2018-Jun-14 05:00N 33°46' W 118°13'0 0.0
2018-Jun-14 04:30N 33°46' W 118°13'0 0.0
2018-Jun-14 04:00N 33°46' W 118°13'1 1.8
2018-Jun-14 03:30N 33°45' W 118°13'0 0.9
2018-Jun-14 03:00N 33°45' W 118°13'1 1.3
2018-Jun-14 02:30N 33°45' W 118°14'1 2.9
2018-Jun-14 02:00N 33°46' W 118°13'0 0.0
2018-Jun-14 01:30N 33°46' W 118°13'0 0.0
2018-Jun-14 01:00N 33°46' W 118°13'0 0.0
2018-Jun-14 00:30N 33°46' W 118°13'0 0.0
2018-Jun-14 00:00N 33°46' W 118°13'0 0.0
2018-Jun-13 23:30N 33°46' W 118°13'0 0.0
2018-Jun-13 23:00N 33°46' W 118°13'0 0.0
2018-Jun-13 22:30N 33°46' W 118°13'0 0.0
2018-Jun-13 22:01N 33°46' W 118°13'0 0.0
2018-Jun-13 21:30N 33°46' W 118°13'0 0.0
2018-Jun-13 21:01N 33°46' W 118°13'1 2.3
2018-Jun-13 20:30N 33°46' W 118°14'2 4.0
2018-Jun-13 20:00N 33°46' W 118°17'1 1.0
2018-Jun-13 19:30N 33°45' W 118°16'2 4.4
2018-Jun-13 18:59N 33°43' W 118°16'0 0.9
2018-Jun-13 18:30N 33°43' W 118°15'2 3.1
2018-Jun-13 18:00N 33°44' W 118°16'1 2.6
2018-Jun-13 17:30N 33°45' W 118°16'0 0.0
2018-Jun-13 17:00N 33°45' W 118°16'1 1.4
2018-Jun-13 16:30N 33°46' W 118°15'0 0.4
2018-Jun-13 16:00N 33°46' W 118°16'0 0.2
2018-Jun-13 15:30N 33°46' W 118°16'0 0.0
2018-Jun-13 15:00N 33°46' W 118°16'0 0.0
2018-Jun-13 14:30N 33°46' W 118°16'0 0.0
2018-Jun-13 14:00N 33°46' W 118°16'0 0.0
2018-Jun-13 13:30N 33°46' W 118°16'1 1.5
2018-Jun-13 13:00N 33°45' W 118°16'1 1.5
2018-Jun-13 12:30N 33°45' W 118°17'1 1.9
2018-Jun-13 12:00N 33°46' W 118°17'1 1.2
2018-Jun-13 11:30N 33°45' W 118°16'3 5.9
2018-Jun-13 11:01N 33°46' W 118°13'0 0.0
2018-Jun-13 10:30N 33°46' W 118°13'0 0.0
2018-Jun-13 10:00N 33°46' W 118°13'0 0.0
2018-Jun-13 09:31N 33°46' W 118°13'0 0.0
2018-Jun-13 09:00N 33°46' W 118°13'0 0.0
2018-Jun-13 08:30N 33°46' W 118°13'0 0.0
2018-Jun-13 08:00N 33°46' W 118°13'0 0.0
2018-Jun-13 07:30N 33°46' W 118°13'0 0.0
2018-Jun-13 07:00N 33°46' W 118°13'0 0.0
2018-Jun-13 06:30N 33°46' W 118°13'1 2.4
2018-Jun-13 06:00N 33°45' W 118°13'3 5.4
2018-Jun-13 05:31N 33°43' W 118°16'0 0.1
2018-Jun-13 05:00N 33°43' W 118°16'0 0.1
2018-Jun-13 04:30N 33°43' W 118°16'0 0.0
2018-Jun-13 03:59N 33°43' W 118°16'0 0.0
2018-Jun-13 03:30N 33°43' W 118°16'0 0.0
2018-Jun-13 03:00N 33°43' W 118°16'0 0.1
2018-Jun-13 02:31N 33°43' W 118°16'0 0.0
2018-Jun-13 02:00N 33°43' W 118°16'0 0.0
2018-Jun-13 01:30N 33°43' W 118°16'0 0.1
2018-Jun-13 01:00N 33°43' W 118°16'0 0.1
2018-Jun-13 00:30N 33°43' W 118°16'0 0.1
2018-Jun-13 00:00N 33°43' W 118°16'3 5.0
2018-Jun-12 23:30N 33°45' W 118°13'1 1.2
2018-Jun-12 23:00N 33°45' W 118°13'0 0.0
2018-Jun-12 22:29N 33°45' W 118°13'1 2.4
2018-Jun-12 22:00N 33°44' W 118°12'0 0.7
2018-Jun-12 21:30N 33°44' W 118°12'1 2.9
2018-Jun-12 21:01N 33°44' W 118°11'3 6.1
2018-Jun-12 20:30N 33°46' W 118°13'1 1.1
2018-Jun-12 20:00N 33°46' W 118°13'0 0.0
2018-Jun-12 19:30N 33°46' W 118°13'0 0.0
2018-Jun-12 19:01N 33°46' W 118°13'0 0.0
2018-Jun-12 18:30N 33°46' W 118°13'0 0.0
2018-Jun-12 18:00N 33°46' W 118°13'0 0.0
2018-Jun-12 17:29N 33°46' W 118°13'0 0.0
2018-Jun-12 17:00N 33°46' W 118°13'0 0.0
2018-Jun-12 16:30N 33°46' W 118°13'0 0.0
2018-Jun-12 16:00N 33°46' W 118°13'0 0.6
2018-Jun-12 15:30N 33°46' W 118°13'1 2.8
2018-Jun-12 15:00N 33°45' W 118°13'0 0.3
2018-Jun-12 14:30N 33°45' W 118°13'1 1.7
2018-Jun-12 14:00N 33°44' W 118°12'0 0.0
2018-Jun-12 13:30N 33°44' W 118°12'0 0.1
2018-Jun-12 13:00N 33°44' W 118°12'1 2.7
2018-Jun-12 12:30N 33°45' W 118°13'0 0.1
2018-Jun-12 12:00N 33°45' W 118°13'2 4.5
2018-Jun-12 11:30N 33°44' W 118°11'0 0.6
2018-Jun-12 11:00N 33°44' W 118°11'3 5.4
2018-Jun-12 10:30N 33°46' W 118°13'1 1.4
2018-Jun-12 10:00N 33°46' W 118°13'0 0.0
2018-Jun-12 09:30N 33°46' W 118°13'0 0.0
2018-Jun-12 09:01N 33°46' W 118°13'0 0.0
2018-Jun-12 08:29N 33°46' W 118°13'0 0.0
2018-Jun-12 08:00N 33°46' W 118°13'0 0.0
2018-Jun-12 07:28N 33°46' W 118°13'0 0.0
2018-Jun-12 07:00N 33°46' W 118°13'0 0.0
2018-Jun-12 06:31N 33°46' W 118°13'0 0.0
2018-Jun-12 06:01N 33°46' W 118°13'0 0.0
2018-Jun-12 05:30N 33°46' W 118°13'0 0.0
2018-Jun-12 04:58N 33°46' W 118°13'0 0.0
2018-Jun-12 04:31N 33°46' W 118°13'0 0.0
2018-Jun-12 04:00N 33°46' W 118°13'0 0.0
2018-Jun-12 03:30N 33°46' W 118°13'0 0.0
2018-Jun-12 03:01N 33°46' W 118°13'0 0.5
2018-Jun-12 02:30N 33°46' W 118°13'1 2.4
2018-Jun-12 02:00N 33°45' W 118°14'0 0.1
2018-Jun-12 01:30N 33°45' W 118°14'0 0.4
2018-Jun-12 01:00N 33°45' W 118°14'1 1.9
2018-Jun-12 00:30N 33°46' W 118°13'0 0.6
2018-Jun-12 00:00N 33°46' W 118°13'0 0.8
2018-Jun-11 23:30N 33°46' W 118°13'0 0.0
2018-Jun-11 23:00N 33°46' W 118°13'0 0.0
2018-Jun-11 22:30N 33°46' W 118°13'0 0.0
2018-Jun-11 22:00N 33°46' W 118°13'0 0.0
2018-Jun-11 21:30N 33°46' W 118°13'0 0.0
2018-Jun-11 21:00N 33°46' W 118°13'0 0.0
2018-Jun-11 20:30N 33°46' W 118°13'0 0.0
2018-Jun-11 20:00N 33°46' W 118°13'0 0.2
2018-Jun-11 19:30N 33°46' W 118°13'3 6.0
2018-Jun-11 19:00N 33°45' W 118°16'0 0.2
2018-Jun-11 18:30N 33°45' W 118°16'  
Track history (hours):
 
Tides and Currents Weather Stations Pressure Air Temp Water Temp Dewpoint Dewpoint Depression Visibility Wind Speed Wind Dir Waves Ship Positions

Arthur Foss

Owner: FOSS MARITIME COMPANY, SEATTLE, WA. More information available from US FCC via Universal Licensing System and Coast Guard Vessel Documentation Center.

Last reported at 2018-Jun-21 18:00 UTC. Time now 2018-Jun-21 18:06 UTC.
Position N 33°46' W 118°13'.

Length 30 m; draft 5.3 m.

Type: Tug. MMSI: 366979360.

Date/timePositionNaut miles runAvg speedWind from/ knotsBaromVisibWave heightAir tempDewpointWater temp
2018-Jun-21 18:00N 33°46' W 118°13'0 0.0
2018-Jun-21 17:30N 33°46' W 118°13'0 0.0
2018-Jun-21 17:00N 33°46' W 118°13'1 1.2
2018-Jun-21 16:30N 33°46' W 118°13'0 0.0
2018-Jun-21 16:00N 33°46' W 118°13'0 0.0
2018-Jun-21 15:30N 33°46' W 118°13'0 0.0
2018-Jun-21 15:00N 33°46' W 118°13'0 0.0
2018-Jun-21 14:30N 33°46' W 118°13'0 0.0
2018-Jun-21 14:00N 33°46' W 118°13'1 1.3
2018-Jun-21 13:30N 33°46' W 118°13'1 1.7
2018-Jun-21 13:00N 33°45' W 118°14'0 0.0
2018-Jun-21 12:30N 33°45' W 118°14'1 1.3
2018-Jun-21 12:00N 33°45' W 118°13'0 0.0
2018-Jun-21 11:30N 33°45' W 118°13'0 0.0
2018-Jun-21 11:00N 33°45' W 118°13'0 0.0
2018-Jun-21 10:30N 33°45' W 118°13'2 3.7
2018-Jun-21 10:00N 33°43' W 118°14'4 8.3
2018-Jun-21 09:30N 33°42' W 118°18'10 0.3
2018-Jun-19 23:02N 33°51' W 118°24'0 0.0
2018-Jun-19 23:00N 33°51' W 118°24'0 0.0
2018-Jun-19 22:27N 33°51' W 118°24'5 0.7
2018-Jun-19 15:51N 33°54' W 118°27'0 0.1
2018-Jun-19 15:28N 33°54' W 118°27'  
2018-Jun-16 15:29N 33°43' W 118°22'5 9.4
2018-Jun-16 15:00N 33°42' W 118°16'4 8.4
2018-Jun-16 14:30N 33°45' W 118°12'0 0.1
2018-Jun-16 14:00N 33°45' W 118°12'2 3.1
2018-Jun-16 13:30N 33°44' W 118°11'0 1.0
2018-Jun-16 13:00N 33°44' W 118°12'2 4.0
2018-Jun-16 12:30N 33°45' W 118°13'0 0.0
2018-Jun-16 12:00N 33°45' W 118°13'0 0.0
2018-Jun-16 11:30N 33°45' W 118°13'1 2.2
2018-Jun-16 11:00N 33°46' W 118°13'0 0.0
2018-Jun-16 10:30N 33°46' W 118°13'0 0.0
2018-Jun-16 10:00N 33°46' W 118°13'0 0.0
2018-Jun-16 09:30N 33°46' W 118°13'0 0.0
2018-Jun-16 09:00N 33°46' W 118°13'0 0.0
2018-Jun-16 08:30N 33°46' W 118°13'0 0.0
2018-Jun-16 08:00N 33°46' W 118°13'0 0.0
2018-Jun-16 07:30N 33°46' W 118°13'0 0.0
2018-Jun-16 07:00N 33°46' W 118°13'0 0.0
2018-Jun-16 06:30N 33°46' W 118°13'0 0.0
2018-Jun-16 06:00N 33°46' W 118°13'0 0.0
2018-Jun-16 05:30N 33°46' W 118°13'0 0.0
2018-Jun-16 05:00N 33°46' W 118°13'0 0.0
2018-Jun-16 04:30N 33°46' W 118°13'1 1.7
2018-Jun-16 04:01N 33°46' W 118°14'1 2.4
2018-Jun-16 03:30N 33°45' W 118°13'2 5.0
2018-Jun-16 03:00N 33°44' W 118°11'2 4.6
2018-Jun-16 02:30N 33°45' W 118°13'1 2.9
2018-Jun-16 02:01N 33°46' W 118°13'0 0.0
2018-Jun-16 01:30N 33°46' W 118°13'0 0.0
2018-Jun-16 01:00N 33°46' W 118°13'0 0.0
2018-Jun-16 00:30N 33°46' W 118°13'1 1.6
2018-Jun-16 00:00N 33°45' W 118°13'1 1.9
2018-Jun-15 23:28N 33°46' W 118°13'0 0.6
2018-Jun-15 23:00N 33°46' W 118°13'0 0.0
2018-Jun-15 22:30N 33°46' W 118°13'0 0.0
2018-Jun-15 22:00N 33°46' W 118°13'0 0.0
2018-Jun-15 21:30N 33°46' W 118°13'0 0.0
2018-Jun-15 21:01N 33°46' W 118°13'0 0.0
2018-Jun-15 20:30N 33°46' W 118°13'0 0.0
2018-Jun-15 20:00N 33°46' W 118°13'0 0.0
2018-Jun-15 19:31N 33°46' W 118°13'0 0.0
2018-Jun-15 19:00N 33°46' W 118°13'0 0.0
2018-Jun-15 18:30N 33°46' W 118°13'0 0.0
2018-Jun-15 18:00N 33°46' W 118°13'0 0.0
2018-Jun-15 17:31N 33°46' W 118°13'0 0.0
2018-Jun-15 17:00N 33°46' W 118°13'0 0.0
2018-Jun-15 16:30N 33°46' W 118°13'0 0.0
2018-Jun-15 16:00N 33°46' W 118°13'0 0.0
2018-Jun-15 15:30N 33°46' W 118°13'0 0.6
2018-Jun-15 15:01N 33°46' W 118°13'3 6.0
2018-Jun-15 14:30N 33°45' W 118°16'0 0.9
2018-Jun-15 14:00N 33°44' W 118°17'2 4.1
2018-Jun-15 13:30N 33°43' W 118°15'1 1.7
2018-Jun-15 13:00N 33°43' W 118°16'0 0.0
2018-Jun-15 12:31N 33°43' W 118°16'1 1.5
2018-Jun-15 12:00N 33°43' W 118°15'1 1.9
2018-Jun-15 11:30N 33°43' W 118°14'1 2.0
2018-Jun-15 11:00N 33°44' W 118°13'1 2.2
2018-Jun-15 10:30N 33°45' W 118°13'1 2.2
2018-Jun-15 10:01N 33°46' W 118°13'1 1.3
2018-Jun-15 09:30N 33°46' W 118°13'0 0.0
2018-Jun-15 09:00N 33°46' W 118°13'0 0.0
2018-Jun-15 08:30N 33°46' W 118°13'0 0.0
2018-Jun-15 08:00N 33°46' W 118°13'0 0.0
2018-Jun-15 07:30N 33°46' W 118°13'0 0.0
2018-Jun-15 07:00N 33°46' W 118°13'0 0.0
2018-Jun-15 06:31N 33°46' W 118°13'0 0.0
2018-Jun-15 06:00N 33°46' W 118°13'0 0.0
2018-Jun-15 05:30N 33°46' W 118°13'0 0.0
2018-Jun-15 05:01N 33°46' W 118°13'0 0.0
2018-Jun-15 04:30N 33°46' W 118°13'0 0.0
2018-Jun-15 04:00N 33°46' W 118°13'0 0.0
2018-Jun-15 03:30N 33°46' W 118°13'0 0.0
2018-Jun-15 03:00N 33°46' W 118°13'0 0.0
2018-Jun-15 02:30N 33°46' W 118°13'1 2.6
2018-Jun-15 02:00N 33°45' W 118°13'3 6.1
2018-Jun-15 01:30N 33°44' W 118°16'1 2.1
2018-Jun-15 01:00N 33°45' W 118°16'1 1.1
2018-Jun-15 00:30N 33°45' W 118°16'0 0.0
2018-Jun-15 00:00N 33°45' W 118°16'0 0.0
2018-Jun-14 23:30N 33°45' W 118°16'0 0.9
2018-Jun-14 23:00N 33°46' W 118°17'0 0.4
2018-Jun-14 22:30N 33°45' W 118°17'1 2.6
2018-Jun-14 22:00N 33°44' W 118°17'2 4.2
2018-Jun-14 21:30N 33°43' W 118°14'3 6.7
2018-Jun-14 21:00N 33°46' W 118°13'0 0.4
2018-Jun-14 20:30N 33°46' W 118°13'0 0.0
2018-Jun-14 20:00N 33°46' W 118°13'0 0.0
2018-Jun-14 19:30N 33°46' W 118°13'0 0.0
2018-Jun-14 19:01N 33°46' W 118°13'0 0.4
2018-Jun-14 18:31N 33°46' W 118°13'0 1.0
2018-Jun-14 18:00N 33°46' W 118°13'3 6.4
2018-Jun-14 17:31N 33°43' W 118°15'3 5.1
2018-Jun-14 17:00N 33°45' W 118°16'1 1.2
2018-Jun-14 16:31N 33°46' W 118°16'0 0.0
2018-Jun-14 16:00N 33°46' W 118°16'0 0.0
2018-Jun-14 15:30N 33°46' W 118°16'0 0.0
2018-Jun-14 15:00N 33°46' W 118°16'0 0.0
2018-Jun-14 14:30N 33°46' W 118°16'0 0.0
2018-Jun-14 14:01N 33°46' W 118°16'0 0.0
2018-Jun-14 13:31N 33°46' W 118°16'0 0.0
2018-Jun-14 13:00N 33°46' W 118°16'0 0.0
2018-Jun-14 12:30N 33°46' W 118°16'0 0.0
2018-Jun-14 12:00N 33°46' W 118°16'0 0.2
2018-Jun-14 11:30N 33°46' W 118°16'3 5.1
2018-Jun-14 11:00N 33°43' W 118°16'1 2.7
2018-Jun-14 10:27N 33°43' W 118°14'3 7.7
2018-Jun-14 10:00N 33°46' W 118°13'0 0.1
2018-Jun-14 09:30N 33°46' W 118°13'0 0.0
2018-Jun-14 09:01N 33°46' W 118°13'0 0.0
2018-Jun-14 08:30N 33°46' W 118°13'0 0.0
2018-Jun-14 08:01N 33°46' W 118°13'0 0.0
2018-Jun-14 07:30N 33°46' W 118°13'0 0.0
2018-Jun-14 07:00N 33°46' W 118°13'0 0.0
2018-Jun-14 06:30N 33°46' W 118°13'0 0.0
2018-Jun-14 06:00N 33°46' W 118°13'0 0.0
2018-Jun-14 05:30N 33°46' W 118°13'0 0.0
2018-Jun-14 05:00N 33°46' W 118°13'0 0.0
2018-Jun-14 04:30N 33°46' W 118°13'0 0.0
2018-Jun-14 04:00N 33°46' W 118°13'1 1.8
2018-Jun-14 03:30N 33°45' W 118°13'0 0.9
2018-Jun-14 03:00N 33°45' W 118°13'1 1.3
2018-Jun-14 02:30N 33°45' W 118°14'1 2.9
2018-Jun-14 02:00N 33°46' W 118°13'0 0.0
2018-Jun-14 01:30N 33°46' W 118°13'0 0.0
2018-Jun-14 01:00N 33°46' W 118°13'0 0.0
2018-Jun-14 00:30N 33°46' W 118°13'0 0.0
2018-Jun-14 00:00N 33°46' W 118°13'0 0.0
2018-Jun-13 23:30N 33°46' W 118°13'0 0.0
2018-Jun-13 23:00N 33°46' W 118°13'0 0.0
2018-Jun-13 22:30N 33°46' W 118°13'0 0.0
2018-Jun-13 22:01N 33°46' W 118°13'0 0.0
2018-Jun-13 21:30N 33°46' W 118°13'0 0.0
2018-Jun-13 21:01N 33°46' W 118°13'1 2.3
2018-Jun-13 20:30N 33°46' W 118°14'2 4.0
2018-Jun-13 20:00N 33°46' W 118°17'1 1.0
2018-Jun-13 19:30N 33°45' W 118°16'2 4.4
2018-Jun-13 18:59N 33°43' W 118°16'0 0.9
2018-Jun-13 18:30N 33°43' W 118°15'2 3.1
2018-Jun-13 18:00N 33°44' W 118°16'1 2.6
2018-Jun-13 17:30N 33°45' W 118°16'0 0.0
2018-Jun-13 17:00N 33°45' W 118°16'1 1.4
2018-Jun-13 16:30N 33°46' W 118°15'0 0.4
2018-Jun-13 16:00N 33°46' W 118°16'0 0.2
2018-Jun-13 15:30N 33°46' W 118°16'0 0.0
2018-Jun-13 15:00N 33°46' W 118°16'0 0.0
2018-Jun-13 14:30N 33°46' W 118°16'0 0.0
2018-Jun-13 14:00N 33°46' W 118°16'0 0.0
2018-Jun-13 13:30N 33°46' W 118°16'1 1.5
2018-Jun-13 13:00N 33°45' W 118°16'1 1.5
2018-Jun-13 12:30N 33°45' W 118°17'1 1.9
2018-Jun-13 12:00N 33°46' W 118°17'1 1.2
2018-Jun-13 11:30N 33°45' W 118°16'3 5.9
2018-Jun-13 11:01N 33°46' W 118°13'0 0.0
2018-Jun-13 10:30N 33°46' W 118°13'0 0.0
2018-Jun-13 10:00N 33°46' W 118°13'0 0.0
2018-Jun-13 09:31N 33°46' W 118°13'0 0.0
2018-Jun-13 09:00N 33°46' W 118°13'0 0.0
2018-Jun-13 08:30N 33°46' W 118°13'0 0.0
2018-Jun-13 08:00N 33°46' W 118°13'0 0.0
2018-Jun-13 07:30N 33°46' W 118°13'0 0.0
2018-Jun-13 07:00N 33°46' W 118°13'0 0.0
2018-Jun-13 06:30N 33°46' W 118°13'1 2.4
2018-Jun-13 06:00N 33°45' W 118°13'3 5.4
2018-Jun-13 05:31N 33°43' W 118°16'0 0.1
2018-Jun-13 05:00N 33°43' W 118°16'0 0.1
2018-Jun-13 04:30N 33°43' W 118°16'0 0.0
2018-Jun-13 03:59N 33°43' W 118°16'0 0.0
2018-Jun-13 03:30N 33°43' W 118°16'0 0.0
2018-Jun-13 03:00N 33°43' W 118°16'0 0.1
2018-Jun-13 02:31N 33°43' W 118°16'0 0.0
2018-Jun-13 02:00N 33°43' W 118°16'0 0.0
2018-Jun-13 01:30N 33°43' W 118°16'0 0.1
2018-Jun-13 01:00N 33°43' W 118°16'0 0.1
2018-Jun-13 00:30N 33°43' W 118°16'0 0.1
2018-Jun-13 00:00N 33°43' W 118°16'3 5.0
2018-Jun-12 23:30N 33°45' W 118°13'1 1.2
2018-Jun-12 23:00N 33°45' W 118°13'0 0.0
2018-Jun-12 22:29N 33°45' W 118°13'1 2.4
2018-Jun-12 22:00N 33°44' W 118°12'0 0.7
2018-Jun-12 21:30N 33°44' W 118°12'1 2.9
2018-Jun-12 21:01N 33°44' W 118°11'3 6.1
2018-Jun-12 20:30N 33°46' W 118°13'1 1.1
2018-Jun-12 20:00N 33°46' W 118°13'0 0.0
2018-Jun-12 19:30N 33°46' W 118°13'0 0.0
2018-Jun-12 19:01N 33°46' W 118°13'0 0.0
2018-Jun-12 18:30N 33°46' W 118°13'0 0.0
2018-Jun-12 18:00N 33°46' W 118°13'0 0.0
2018-Jun-12 17:29N 33°46' W 118°13'0 0.0
2018-Jun-12 17:00N 33°46' W 118°13'0 0.0
2018-Jun-12 16:30N 33°46' W 118°13'0 0.0
2018-Jun-12 16:00N 33°46' W 118°13'0 0.6
2018-Jun-12 15:30N 33°46' W 118°13'1 2.8
2018-Jun-12 15:00N 33°45' W 118°13'0 0.3
2018-Jun-12 14:30N 33°45' W 118°13'1 1.7
2018-Jun-12 14:00N 33°44' W 118°12'0 0.0
2018-Jun-12 13:30N 33°44' W 118°12'0 0.1
2018-Jun-12 13:00N 33°44' W 118°12'1 2.7
2018-Jun-12 12:30N 33°45' W 118°13'0 0.1
2018-Jun-12 12:00N 33°45' W 118°13'2 4.5
2018-Jun-12 11:30N 33°44' W 118°11'0 0.6
2018-Jun-12 11:00N 33°44' W 118°11'3 5.4
2018-Jun-12 10:30N 33°46' W 118°13'1 1.4
2018-Jun-12 10:00N 33°46' W 118°13'0 0.0
2018-Jun-12 09:30N 33°46' W 118°13'0 0.0
2018-Jun-12 09:01N 33°46' W 118°13'0 0.0
2018-Jun-12 08:29N 33°46' W 118°13'0 0.0
2018-Jun-12 08:00N 33°46' W 118°13'0 0.0
2018-Jun-12 07:28N 33°46' W 118°13'0 0.0
2018-Jun-12 07:00N 33°46' W 118°13'0 0.0
2018-Jun-12 06:31N 33°46' W 118°13'0 0.0
2018-Jun-12 06:01N 33°46' W 118°13'0 0.0
2018-Jun-12 05:30N 33°46' W 118°13'0 0.0
2018-Jun-12 04:58N 33°46' W 118°13'0 0.0
2018-Jun-12 04:31N 33°46' W 118°13'0 0.0
2018-Jun-12 04:00N 33°46' W 118°13'0 0.0
2018-Jun-12 03:30N 33°46' W 118°13'0 0.0
2018-Jun-12 03:01N 33°46' W 118°13'0 0.5
2018-Jun-12 02:30N 33°46' W 118°13'1 2.4
2018-Jun-12 02:00N 33°45' W 118°14'0 0.1
2018-Jun-12 01:30N 33°45' W 118°14'0 0.4
2018-Jun-12 01:00N 33°45' W 118°14'1 1.9
2018-Jun-12 00:30N 33°46' W 118°13'0 0.6
2018-Jun-12 00:00N 33°46' W 118°13'0 0.8
2018-Jun-11 23:30N 33°46' W 118°13'0 0.0
2018-Jun-11 23:00N 33°46' W 118°13'0 0.0
2018-Jun-11 22:30N 33°46' W 118°13'0 0.0
2018-Jun-11 22:00N 33°46' W 118°13'0 0.0
2018-Jun-11 21:30N 33°46' W 118°13'0 0.0
2018-Jun-11 21:00N 33°46' W 118°13'0 0.0
2018-Jun-11 20:30N 33°46' W 118°13'0 0.0
2018-Jun-11 20:00N 33°46' W 118°13'0 0.2
2018-Jun-11 19:30N 33°46' W 118°13'3 6.0
2018-Jun-11 19:00N 33°45' W 118°16'0 0.2
2018-Jun-11 18:30N 33°45' W 118°16'  

Dump ship's entire track history